Bookmark and Share
Track history (hours):
 

Dai25myoujinmaru

Last reported at 2014-Apr-21 04:34 UTC. Time now 2014-Apr-21 04:50 UTC.
Position N 35°21' E 139°45'.

Length 88 m; draft 5 m.

Type: Tanker. MMSI: 431500272.

NotesDate/timePositionNaut miles runAvg speedWind from/ knotsBaromVisibWave heightAir tempDewpointWater temp
2014-Apr-21 04:34N 35°21' E 139°45'1211.9
2014-Apr-21 03:33N 35°09' E 139°47'1312.9
2014-Apr-21 02:33N 34°56' E 139°45'1510.0
2014-Apr-21 01:06N 34°56' E 140°03'611.3
2014-Apr-21 00:33N 34°59' E 140°09'2311.2
2014-Apr-20 22:29N 35°14' E 140°32'1111.4
2014-Apr-20 21:31N 35°22' E 140°40'  
2014-Apr-17 17:09N 35°49' E 140°59'712.0
2014-Apr-17 16:33N 35°42' E 140°58'1312.7
2014-Apr-17 15:33N 35°31' E 140°50'4513.8
2014-Apr-17 12:16N 34°59' E 140°12'2212.3
2014-Apr-17 10:31N 34°52' E 139°47'1111.2
2014-Apr-17 09:33N 35°03' E 139°44'1211.9
2014-Apr-17 08:33N 35°14' E 139°46'1110.5
2014-Apr-17 07:33N 35°25' E 139°43'7 6.8
2014-Apr-17 06:33N 35°31' E 139°46'0 0.0
2014-Apr-17 05:32N 35°31' E 139°46'0 0.0
2014-Apr-17 04:32N 35°31' E 139°46'0 0.0
2014-Apr-17 03:32N 35°31' E 139°46'0 0.0
2014-Apr-17 02:32N 35°31' E 139°46'0 0.0
2014-Apr-17 01:32N 35°31' E 139°46'0 0.0
2014-Apr-17 00:33N 35°31' E 139°46'0 0.5
2014-Apr-16 23:34N 35°31' E 139°46'3 3.1
2014-Apr-16 22:33N 35°28' E 139°46'1010.0
2014-Apr-16 21:33N 35°32' E 139°57'8 7.2
2014-Apr-16 20:25N 35°36' E 140°06'0 0.0
2014-Apr-16 19:33N 35°36' E 140°06'0 0.0
2014-Apr-16 18:33N 35°36' E 140°06'0 0.0
2014-Apr-16 17:33N 35°36' E 140°06'0 0.0
2014-Apr-16 16:33N 35°36' E 140°06'0 0.0
2014-Apr-16 15:33N 35°36' E 140°06'0 0.0
2014-Apr-16 14:33N 35°36' E 140°06'0 0.0
2014-Apr-16 13:33N 35°36' E 140°06'0 0.0
2014-Apr-16 12:33N 35°36' E 140°06'0 0.0
2014-Apr-16 11:33N 35°36' E 140°06'0 0.0
2014-Apr-16 10:33N 35°36' E 140°06'0 0.0
2014-Apr-16 09:33N 35°36' E 140°06'0 0.0
2014-Apr-16 08:33N 35°36' E 140°06'0 0.0
2014-Apr-16 07:33N 35°36' E 140°06'0 0.0
2014-Apr-16 06:33N 35°36' E 140°06'0 0.0
2014-Apr-16 05:33N 35°36' E 140°06'0 0.2
2014-Apr-16 04:33N 35°36' E 140°06'1111.5
2014-Apr-16 03:33N 35°30' E 139°54'1313.1
2014-Apr-16 02:33N 35°19' E 139°44'1212.1
2014-Apr-16 01:33N 35°07' E 139°46'1312.7
2014-Apr-16 00:33N 34°55' E 139°46'1611.6
2014-Apr-15 23:10N 34°57' E 140°05'1112.7
2014-Apr-15 22:16N 35°03' E 140°17'2011.7
2014-Apr-15 20:33N 35°17' E 140°34'1212.3
2014-Apr-15 19:33N 35°27' E 140°43'1212.1
2014-Apr-15 18:33N 35°37' E 140°51'1212.5
2014-Apr-15 17:33N 35°48' E 140°58'1312.9
2014-Apr-15 16:33N 36°01' E 141°01'  
2014-Apr-12 15:31N 35°29' E 140°46'1313.1
2014-Apr-12 14:32N 35°19' E 140°36'2713.2
2014-Apr-12 12:30N 35°00' E 140°13'2411.6
2014-Apr-12 10:26N 34°56' E 139°44'1011.6
2014-Apr-12 09:33N 35°06' E 139°45'1212.3
2014-Apr-12 08:33N 35°19' E 139°43'1010.4
2014-Apr-12 07:33N 35°28' E 139°49'1111.0
2014-Apr-12 06:33N 35°31' E 140°02'1 0.7
2014-Apr-12 05:32N 35°31' E 140°03'0 0.0
2014-Apr-12 04:29N 35°31' E 140°03'0 0.0
2014-Apr-12 03:26N 35°31' E 140°03'0 0.0
2014-Apr-12 02:32N 35°31' E 140°03'0 0.0
2014-Apr-12 01:32N 35°31' E 140°03'1 1.0
2014-Apr-12 00:27N 35°31' E 140°02'0 0.0
2014-Apr-11 23:27N 35°31' E 140°02'0 0.0
2014-Apr-11 22:33N 35°31' E 140°02'0 0.0
2014-Apr-11 21:33N 35°31' E 140°02'0 0.0
2014-Apr-11 20:33N 35°31' E 140°02'0 0.0
2014-Apr-11 19:33N 35°31' E 140°02'0 0.0
2014-Apr-11 18:33N 35°31' E 140°02'0 0.0
2014-Apr-11 17:27N 35°31' E 140°02'0 0.1
2014-Apr-11 16:30N 35°31' E 140°02'0 0.1
2014-Apr-11 15:33N 35°31' E 140°02'0 0.0
2014-Apr-11 14:27N 35°31' E 140°02'0 0.0
2014-Apr-11 13:33N 35°31' E 140°02'6 6.0
2014-Apr-11 12:33N 35°31' E 139°54'7 6.8
2014-Apr-11 11:27N 35°30' E 139°45'0 0.0
2014-Apr-11 10:27N 35°30' E 139°45'0 0.0
2014-Apr-11 09:27N 35°30' E 139°45'0 0.0
2014-Apr-11 08:33N 35°30' E 139°45'0 0.0
2014-Apr-11 07:34N 35°30' E 139°45'3 2.5
2014-Apr-11 06:34N 35°28' E 139°46'2 2.2
2014-Apr-11 05:33N 35°29' E 139°49'  

Dump ship's entire track history

sailing weather and tide predictions

Dai25myoujinmaru — JL6201 — position and weather